Time;durP1;ratioP1;P1;durP2;ratioP2;P2;SDS_P1;SDS_P2;PMS_P1;PMS_P2;Temp;Humidity;BMP_temperature;BMP_pressure;BME280_temperature;BME280_humidity;BME280_pressure;Samples;Min_cycle;Max_cycle;Signal;HPM_P1;HPM_P2
2022/09/01 04:08:00;;;;;;;3.65;2.42;;;;;;;18.24;76.32;100506.69;5612326;31;80996;-56
2022/09/01 04:11:12;;;;;;;5.32;2.08;;;;;;;18.24;76.32;100506.69;5603664;31;34148;-57
2022/09/01 04:14:14;;;;;;;3.72;2.20;;;;;;;17.80;76.96;100513.44;5594077;31;33898;-56
2022/09/01 04:20:47;;;;;;;5.53;2.50;;;;;;;17.93;78.05;100514.38;5584080;31;33173;-56
2022/09/01 04:23:50;;;;;;;4.50;1.98;;;;;;;18.06;79.89;100518.75;5583903;31;33308;-56
2022/09/01 04:26:53;;;;;;;4.80;2.47;;;;;;;17.90;78.79;100526.66;5596106;31;34211;-57
2022/09/01 04:29:55;;;;;;;3.85;2.25;;;;;;;17.93;80.12;100520.56;5593963;31;34304;-57
2022/09/01 04:32:59;;;;;;;4.03;2.03;;;;;;;17.90;78.04;100515.81;5602411;31;32312;-57
2022/09/01 04:36:13;;;;;;;5.93;2.30;;;;;;;17.83;78.66;100515.50;5602151;31;33483;-56
2022/09/01 04:39:16;;;;;;;5.47;2.30;;;;;;;17.88;80.18;100511.81;5601712;31;34897;-57
2022/09/01 04:42:22;;;;;;;5.10;1.92;;;;;;;17.98;80.43;100516.88;5595372;31;33239;-57
2022/09/01 04:45:26;;;;;;;4.68;2.00;;;;;;;17.94;78.44;100527.59;5596897;31;33722;-56
2022/09/01 04:48:30;;;;;;;4.25;2.00;;;;;;;17.92;77.29;100519.00;5590395;31;33914;-56
2022/09/01 04:51:34;;;;;;;4.57;2.33;;;;;;;17.92;78.47;100523.62;5570297;31;34296;-56
2022/09/01 04:54:37;;;;;;;5.55;2.72;;;;;;;17.70;78.27;100517.28;5563937;31;33336;-57
2022/09/01 04:57:41;;;;;;;3.83;2.17;;;;;;;17.69;78.68;100521.13;5570940;32;33432;-56
2022/09/01 05:00:46;;;;;;;4.12;2.30;;;;;;;17.86;79.07;100520.28;5563951;32;33556;-56
2022/09/01 05:04:00;;;;;;;4.72;2.50;;;;;;;17.89;80.27;100513.44;5574069;32;34289;-56
2022/09/01 05:07:07;;;;;;;5.53;2.47;;;;;;;17.81;77.71;100515.03;5574353;31;33292;-56
2022/09/01 05:10:09;;;;;;;5.35;2.35;;;;;;;17.80;78.81;100521.59;5588997;31;32328;-56
2022/09/01 05:13:16;;;;;;;4.85;2.45;;;;;;;17.77;78.77;100531.16;5582745;31;33276;-57
2022/09/01 05:16:20;;;;;;;5.03;1.92;;;;;;;17.66;80.97;100535.31;5576547;31;34165;-57
2022/09/01 05:19:28;;;;;;;5.47;2.70;;;;;;;17.55;78.68;100523.25;5550287;32;33332;-57
2022/09/01 05:22:32;;;;;;;4.30;2.33;;;;;;;17.55;79.52;100534.88;5552798;32;33418;-54
2022/09/01 05:25:42;;;;;;;5.87;2.58;;;;;;;17.49;80.42;100543.50;5554792;31;33294;-54
2022/09/01 05:28:47;;;;;;;5.53;2.53;;;;;;;17.58;80.21;100542.37;5553602;31;34274;-54
2022/09/01 05:31:51;;;;;;;4.50;2.62;;;;;;;17.48;79.64;100539.19;5555978;32;34419;-54
2022/09/01 05:34:55;;;;;;;4.90;2.47;;;;;;;17.43;81.06;100529.31;5554121;31;33370;-54
2022/09/01 05:37:58;;;;;;;6.68;2.62;;;;;;;17.38;83.29;100529.47;5556632;32;34389;-54
2022/09/01 05:41:03;;;;;;;5.00;2.28;;;;;;;17.51;82.46;100531.22;5550692;32;34266;-54
2022/09/01 05:44:07;;;;;;;7.82;2.20;;;;;;;17.55;80.41;100525.97;5553048;32;33362;-54
2022/09/01 05:47:11;;;;;;;4.40;2.35;;;;;;;17.47;82.25;100532.97;5557274;32;33471;-54
2022/09/01 05:50:22;;;;;;;4.82;2.47;;;;;;;17.54;78.80;100535.97;5558677;32;34255;-54
2022/09/01 05:53:27;;;;;;;8.85;2.62;;;;;;;17.53;81.76;100537.12;5567827;32;33277;-54
2022/09/01 05:56:31;;;;;;;4.70;2.40;;;;;;;17.56;82.42;100522.91;5567014;31;34230;-54
2022/09/01 05:59:34;;;;;;;6.28;2.40;;;;;;;17.52;81.13;100532.81;5568326;32;34303;-53
2022/09/01 06:02:38;;;;;;;6.53;2.80;;;;;;;17.51;84.59;100535.84;5549137;31;33648;-54
2022/09/01 06:05:41;;;;;;;6.32;2.90;;;;;;;17.55;82.65;100543.03;5559020;32;34109;-54
2022/09/01 06:08:48;;;;;;;5.05;2.30;;;;;;;17.52;81.32;100537.44;5560213;31;33284;-54
2022/09/01 06:11:50;;;;;;;4.55;2.10;;;;;;;17.54;82.32;100554.16;5553546;32;33159;-54
2022/09/01 06:14:54;;;;;;;3.85;2.30;;;;;;;17.47;82.14;100551.94;5569362;32;33727;-54
2022/09/01 06:17:58;;;;;;;4.32;2.40;;;;;;;17.57;81.55;100546.19;5561584;31;33249;-54
2022/09/01 06:21:07;;;;;;;5.65;2.17;;;;;;;17.53;79.07;100537.12;5553765;32;34251;-54
2022/09/01 06:24:09;;;;;;;3.12;2.05;;;;;;;17.63;79.45;100544.09;5569009;31;34154;-54
2022/09/01 06:27:11;;;;;;;3.95;2.20;;;;;;;17.62;79.11;100535.19;5566089;31;34143;-54
2022/09/01 06:30:25;;;;;;;5.25;2.87;;;;;;;17.58;78.93;100539.66;5567040;32;33213;-54
2022/09/01 06:33:27;;;;;;;5.18;2.30;;;;;;;17.66;79.53;100545.37;5556893;32;34363;-54
2022/09/01 06:36:35;;;;;;;3.83;2.00;;;;;;;17.68;81.23;100546.66;5559987;32;33592;-54
2022/09/01 06:39:38;;;;;;;4.87;2.35;;;;;;;17.71;79.11;100547.91;5567520;31;33442;-54
2022/09/01 06:42:42;;;;;;;5.82;2.33;;;;;;;17.44;80.09;100552.59;5552932;32;33183;-54
2022/09/01 06:45:53;;;;;;;4.93;2.42;;;;;;;17.38;81.68;100557.41;5550286;32;33614;-54
2022/09/01 06:48:57;;;;;;;4.97;2.28;;;;;;;17.42;79.22;100554.84;5554492;32;34297;-54
2022/09/01 06:52:02;;;;;;;4.43;2.50;;;;;;;17.49;83.15;100557.06;5556264;32;33624;-54
2022/09/01 06:55:05;;;;;;;5.80;2.40;;;;;;;17.57;78.93;100550.81;5547842;32;33094;-54
2022/09/01 06:58:12;;;;;;;4.87;2.72;;;;;;;17.54;82.44;100556.88;5549720;32;33430;-54
2022/09/01 07:01:26;;;;;;;4.97;2.58;;;;;;;17.66;81.36;100561.66;5554695;32;33514;-53
2022/09/01 07:04:30;;;;;;;5.53;2.25;;;;;;;17.52;79.99;100562.63;5551503;31;32805;-54
2022/09/01 07:07:34;;;;;;;4.60;2.30;;;;;;;17.67;77.91;100566.72;5564971;31;33844;-53
2022/09/01 07:11:07;;;;;;;4.12;2.30;;;;;;;17.76;77.50;100572.97;5564671;31;31771;-54
2022/09/01 07:14:29;;;;;;;3.83;2.50;;;;;;;17.87;78.68;100578.81;5556505;32;34491;-54
2022/09/01 07:17:31;;;;;;;3.78;2.47;;;;;;;17.90;77.82;100577.38;5554279;32;33480;-54
2022/09/01 07:20:38;;;;;;;5.00;2.92;;;;;;;17.91;77.66;100582.47;5565274;32;33374;-54
2022/09/01 07:24:03;;;;;;;3.97;2.30;;;;;;;17.97;80.48;100585.81;5559806;32;33557;-54
2022/09/01 07:27:12;;;;;;;5.62;2.28;;;;;;;18.02;76.95;100578.31;5561920;31;34376;-54
2022/09/01 07:30:21;;;;;;;2.70;2.20;;;;;;;17.91;77.11;100587.09;5584697;31;33651;-54
2022/09/01 07:33:49;;;;;;;7.03;2.50;;;;;;;17.93;77.34;100585.66;5551756;32;33633;-54
2022/09/01 07:36:55;;;;;;;5.60;2.28;;;;;;;17.95;79.19;100588.88;5556660;31;34337;-54
2022/09/01 07:40:21;;;;;;;4.93;2.17;;;;;;;17.94;78.72;100586.47;5562221;31;34369;-54
2022/09/01 07:43:50;;;;;;;4.60;2.28;;;;;;;18.02;78.00;100586.44;5549139;32;35133;-54
2022/09/01 07:47:00;;;;;;;4.53;2.42;;;;;;;17.95;74.10;100593.50;5559805;32;34388;-54
2022/09/01 07:50:27;;;;;;;2.65;2.20;;;;;;;17.77;77.69;100588.09;5566706;31;34116;-54
2022/09/01 07:53:50;;;;;;;4.68;2.15;;;;;;;17.80;75.68;100584.75;5557524;32;33433;-54
2022/09/01 07:56:54;;;;;;;3.47;2.20;;;;;;;17.90;75.98;100590.94;5562716;31;33144;-54
2022/09/01 07:59:57;;;;;;;5.28;2.22;;;;;;;18.00;76.90;100594.09;5575195;31;32050;-54
2022/09/01 08:03:02;;;;;;;6.30;2.67;;;;;;;18.03;77.72;100590.75;5557728;31;33513;-54
2022/09/01 08:06:11;;;;;;;2.78;1.95;;;;;;;18.10;73.17;100584.00;5548685;32;33550;-54
2022/09/01 08:09:13;;;;;;;6.97;2.65;;;;;;;18.01;76.20;100586.75;5560379;32;31770;-54
2022/09/01 08:12:36;;;;;;;5.55;2.40;;;;;;;18.07;79.69;100588.97;5563988;31;33873;-54
2022/09/01 08:15:39;;;;;;;4.12;2.45;;;;;;;18.02;79.03;100583.72;5553673;32;33194;-54
2022/09/01 08:19:02;;;;;;;5.37;2.10;;;;;;;18.12;78.52;100593.44;5559608;32;34117;-54
2022/09/01 08:22:04;;;;;;;6.95;2.30;;;;;;;18.21;76.01;100583.34;5555947;32;34475;-53
2022/09/01 08:25:08;;;;;;;3.55;1.90;;;;;;;18.24;79.04;100588.09;5561029;32;33323;-54
2022/09/01 08:28:13;;;;;;;4.50;2.10;;;;;;;18.34;80.10;100594.28;5556568;32;33709;-54
2022/09/01 08:31:18;;;;;;;3.33;2.10;;;;;;;18.38;75.59;100592.53;5553372;32;33653;-54
2022/09/01 08:34:24;;;;;;;4.85;1.77;;;;;;;18.37;74.75;100596.34;5554305;32;33546;-54
2022/09/01 08:37:27;;;;;;;2.85;1.70;;;;;;;18.42;72.42;100594.25;5558567;32;33078;-54
2022/09/01 08:40:29;;;;;;;4.07;1.75;;;;;;;18.51;72.07;100592.28;5560133;32;34322;-54
2022/09/01 08:43:49;;;;;;;4.68;1.90;;;;;;;18.52;76.02;100596.56;5558865;32;31998;-54
2022/09/01 08:47:06;;;;;;;4.20;2.47;;;;;;;18.46;75.76;100594.38;5556010;32;33659;-54
2022/09/01 08:50:19;;;;;;;2.45;1.60;;;;;;;18.57;72.55;100606.44;5559461;32;31792;-54
2022/09/01 08:53:31;;;;;;;5.22;1.90;;;;;;;18.59;71.95;100608.84;5559470;31;33260;-54
2022/09/01 08:56:36;;;;;;;4.62;1.83;;;;;;;18.67;71.39;100597.91;5565387;31;33941;-54
2022/09/01 08:59:38;;;;;;;3.78;1.90;;;;;;;18.65;70.67;100594.75;5565836;31;33971;-54
2022/09/01 09:03:06;;;;;;;5.97;1.90;;;;;;;18.63;66.40;100602.41;5569311;31;34067;-54
2022/09/01 09:06:16;;;;;;;4.68;1.83;;;;;;;18.73;69.02;100602.06;5563723;31;34398;-54
2022/09/01 09:09:18;;;;;;;4.12;1.87;;;;;;;18.83;65.36;100591.94;5563803;32;34322;-54
2022/09/01 09:12:52;;;;;;;;;;;;;;;18.78;65.72;100604.59;5559022;32;34179;-54
2022/09/01 09:16:17;;;;;;;8.13;2.10;;;;;;;18.89;72.89;100596.06;5557817;32;33454;-54
2022/09/01 09:19:33;;;;;;;3.62;2.20;;;;;;;18.91;68.91;100594.59;5550950;32;34522;-54
2022/09/01 09:22:36;;;;;;;5.00;1.92;;;;;;;19.01;64.73;100593.41;5560079;32;33796;-54
2022/09/01 09:25:38;;;;;;;6.25;2.15;;;;;;;19.03;65.06;100588.44;5564607;32;33411;-54
2022/09/01 09:28:40;;;;;;;6.57;1.85;;;;;;;19.11;70.42;100593.00;5560304;32;34392;-54
2022/09/01 09:31:47;;;;;;;3.55;2.10;;;;;;;19.08;64.43;100595.59;5548743;32;32115;-54
2022/09/01 09:34:51;;;;;;;6.07;2.00;;;;;;;19.09;65.26;100583.59;5555197;32;34449;-54
2022/09/01 09:37:54;;;;;;;4.12;1.73;;;;;;;19.10;64.88;100579.75;5566315;32;33832;-54
2022/09/01 09:41:14;;;;;;;4.32;1.70;;;;;;;19.02;66.40;100576.78;5568104;32;34372;-54
2022/09/01 09:44:28;;;;;;;2.67;1.60;;;;;;;19.06;65.93;100573.41;5566900;32;33803;-54
2022/09/01 09:47:36;;;;;;;5.05;2.15;;;;;;;19.16;66.69;100571.06;5552185;32;33723;-54
2022/09/01 09:50:45;;;;;;;4.57;2.00;;;;;;;19.09;66.89;100576.25;5563755;32;33792;-54
2022/09/01 09:53:48;;;;;;;7.53;2.20;;;;;;;19.29;70.63;100569.19;5557919;32;33687;-54
2022/09/01 09:57:10;;;;;;;3.40;1.65;;;;;;;19.45;67.05;100559.28;5556338;32;35401;-54
2022/09/01 10:00:32;;;;;;;9.15;2.53;;;;;;;19.39;65.87;100562.53;5566313;32;34351;-54
2022/09/01 10:03:41;;;;;;;7.57;2.20;;;;;;;19.56;66.31;100567.00;5558628;32;34450;-54
2022/09/01 10:06:44;;;;;;;5.47;1.73;;;;;;;19.51;68.08;100564.50;5576123;31;33697;-54
2022/09/01 10:09:49;;;;;;;5.03;1.90;;;;;;;19.57;65.06;100565.87;5571677;31;33718;-54
2022/09/01 10:12:53;;;;;;;2.62;1.90;;;;;;;19.67;67.02;100563.56;5570486;31;33321;-54
2022/09/01 10:15:58;;;;;;;3.83;1.95;;;;;;;19.68;68.81;100564.34;5569333;31;33874;-54
2022/09/01 10:19:01;;;;;;;3.10;2.00;;;;;;;19.82;63.79;100564.81;5562296;32;33722;-54
2022/09/01 10:22:03;;;;;;;3.53;2.08;;;;;;;19.84;63.54;100562.56;5557622;32;33702;-54
2022/09/01 10:25:13;;;;;;;14.75;2.15;;;;;;;19.87;66.39;100555.66;5550114;32;34411;-54
2022/09/01 10:28:23;;;;;;;2.75;1.67;;;;;;;19.99;62.81;100563.03;5561638;31;33668;-54
2022/09/01 10:31:26;;;;;;;4.87;1.90;;;;;;;19.83;58.12;100554.72;5549611;32;34313;-54
2022/09/01 10:34:36;;;;;;;6.65;1.62;;;;;;;19.90;60.76;100561.22;5551340;32;34386;-54
2022/09/01 10:37:39;;;;;;;3.00;1.80;;;;;;;19.94;59.51;100553.19;5555757;32;33256;-54
2022/09/01 10:41:05;;;;;;;2.45;1.60;;;;;;;20.04;56.22;100543.78;5547962;32;33534;-54
2022/09/01 10:44:18;;;;;;;1.87;1.50;;;;;;;20.07;56.93;100552.06;5553826;32;33698;-54
2022/09/01 10:47:28;;;;;;;3.70;1.73;;;;;;;20.15;57.17;100540.25;5559203;32;34459;-54
2022/09/01 10:50:31;;;;;;;2.55;1.52;;;;;;;20.17;57.08;100535.25;5560445;32;34294;-54
2022/09/01 10:53:44;;;;;;;5.28;2.75;;;;;;;20.35;54.53;100543.19;5555113;32;34231;-54
2022/09/01 10:56:52;;;;;;;5.45;1.70;;;;;;;20.39;55.67;100533.97;5559857;32;33979;-54
2022/09/01 10:59:56;;;;;;;2.60;1.30;;;;;;;20.49;54.76;100537.38;5559286;32;33677;-54
2022/09/01 11:03:11;;;;;;;2.77;1.40;;;;;;;20.50;53.75;100528.09;5564945;32;33683;-54
2022/09/01 11:07:03;;;;;;;3.80;1.50;;;;;;;20.55;54.73;100531.38;5558079;32;32376;-54
2022/09/01 11:10:22;;;;;;;2.78;1.45;;;;;;;20.65;54.51;100532.84;5559082;32;33808;-54
2022/09/01 11:13:53;;;;;;;4.62;1.33;;;;;;;20.70;54.13;100529.88;5561636;32;34576;-54
2022/09/01 11:17:40;;;;;;;4.35;1.37;;;;;;;20.98;52.30;100531.84;5557759;32;33792;-55
2022/09/01 11:20:44;;;;;;;4.03;1.27;;;;;;;21.01;52.33;100525.69;5539443;32;34370;-54
2022/09/01 11:23:46;;;;;;;8.80;1.70;;;;;;;21.06;50.19;100520.00;5566020;32;33772;-54
2022/09/01 11:26:49;;;;;;;3.87;1.30;;;;;;;21.11;49.62;100519.75;5554503;32;33777;-54
2022/09/01 11:29:58;;;;;;;6.10;1.50;;;;;;;21.02;47.36;100519.88;5548118;32;33761;-54
2022/09/01 11:33:33;;;;;;;3.25;1.60;;;;;;;21.06;47.12;100523.50;5553596;32;32329;-54
2022/09/01 11:36:47;;;;;;;2.13;1.40;;;;;;;21.15;50.80;100531.53;5550157;32;34262;-54
2022/09/01 11:39:57;;;;;;;5.43;1.48;;;;;;;21.29;48.15;100521.03;5567063;32;33769;-54
2022/09/01 11:43:06;;;;;;;7.15;1.50;;;;;;;21.29;46.55;100523.75;5551033;32;33723;-54
2022/09/01 11:46:31;;;;;;;1.30;1.00;;;;;;;21.41;47.40;100513.94;5561052;32;34243;-54
2022/09/01 11:49:45;;;;;;;3.22;1.50;;;;;;;21.43;45.81;100509.72;5565009;32;34332;-54
2022/09/01 11:53:10;;;;;;;1.83;1.37;;;;;;;21.49;48.23;100513.78;5564577;32;34453;-54
2022/09/01 11:56:16;;;;;;;2.85;1.30;;;;;;;21.59;46.78;100507.00;5560832;32;33776;-54
2022/09/01 11:59:33;;;;;;;;;;;;;;;21.66;46.74;100507.19;5558083;32;33756;-54
2022/09/01 12:02:43;;;;;;;3.45;1.37;;;;;;;21.73;44.67;100506.56;5552895;32;36488;-54
2022/09/01 12:05:49;;;;;;;3.20;1.30;;;;;;;21.77;44.23;100504.72;5555429;32;34426;-54
2022/09/01 12:08:58;;;;;;;2.78;1.00;;;;;;;21.83;43.27;100503.31;5547710;32;33698;-54
2022/09/01 12:12:01;;;;;;;3.37;1.40;;;;;;;21.80;48.69;100502.06;5553605;32;33697;-54
2022/09/01 12:15:23;;;;;;;2.58;1.30;;;;;;;21.83;46.02;100495.13;5548523;32;33838;-54
2022/09/01 12:18:29;;;;;;;4.05;1.65;;;;;;;21.91;43.54;100493.34;5547776;32;34007;-54
2022/09/01 12:21:35;;;;;;;3.00;1.27;;;;;;;21.96;43.49;100490.34;5547267;32;33617;-55
2022/09/01 12:24:37;;;;;;;4.22;1.45;;;;;;;22.00;42.81;100493.97;5563775;32;33449;-54
2022/09/01 12:27:39;;;;;;;3.53;1.30;;;;;;;22.08;42.67;100486.72;5567469;32;34415;-54
2022/09/01 12:30:43;;;;;;;2.03;1.25;;;;;;;22.13;43.54;100491.91;5569644;32;33720;-55
2022/09/01 12:33:46;;;;;;;5.78;1.40;;;;;;;22.15;42.07;100486.88;5569230;32;34353;-54
2022/09/01 12:37:15;;;;;;;5.15;1.50;;;;;;;22.20;41.97;100492.09;5570738;32;34334;-55
2022/09/01 12:40:36;;;;;;;1.75;1.30;;;;;;;22.26;41.60;100487.94;5560137;32;33707;-54
2022/09/01 12:43:40;;;;;;;2.17;1.27;;;;;;;22.29;42.39;100489.97;5556948;32;33226;-54
2022/09/01 12:46:44;;;;;;;1.65;1.30;;;;;;;22.27;42.60;100492.25;5550839;32;34383;-54
2022/09/01 12:49:48;;;;;;;2.97;1.40;;;;;;;22.33;40.63;100487.31;5550932;32;33612;-54
2022/09/01 12:53:00;;;;;;;2.78;1.62;;;;;;;22.34;44.43;100486.94;5550811;32;34367;-54
2022/09/01 12:56:23;;;;;;;2.78;1.30;;;;;;;22.46;48.51;100477.84;5551071;32;33648;-54
2022/09/01 12:59:26;;;;;;;4.03;1.20;;;;;;;22.57;41.07;100475.34;5557550;32;33341;-54
2022/09/01 13:02:44;;;;;;;4.43;1.40;;;;;;;22.56;42.24;100477.28;5570332;32;33652;-55
2022/09/01 13:05:52;;;;;;;3.15;1.48;;;;;;;22.56;42.59;100476.50;5570436;32;33605;-54
2022/09/01 13:08:54;;;;;;;3.35;1.20;;;;;;;22.52;42.54;100481.88;5570311;32;33657;-54
2022/09/01 13:12:18;;;;;;;4.87;1.20;;;;;;;22.55;42.77;100478.44;5570373;32;33847;-54
2022/09/01 13:15:20;;;;;;;29.90;2.28;;;;;;;22.58;40.25;100466.75;5570185;32;33717;-54
2022/09/01 13:18:24;;;;;;;5.85;1.27;;;;;;;22.56;44.06;100471.03;5569831;32;33900;-54
2022/09/01 13:21:27;;;;;;;4.20;1.37;;;;;;;22.61;41.17;100476.19;5560452;32;33799;-54
2022/09/01 13:24:29;;;;;;;6.62;1.50;;;;;;;22.55;42.27;100470.25;5555320;32;33800;-54
2022/09/01 13:27:33;;;;;;;3.58;1.33;;;;;;;22.67;43.07;100466.56;5552116;32;33633;-54
2022/09/01 13:30:35;;;;;;;5.93;1.52;;;;;;;22.69;40.67;100470.53;5568614;32;33617;-54
2022/09/01 13:33:38;;;;;;;2.25;1.30;;;;;;;22.68;42.50;100474.41;5551887;32;33569;-55
2022/09/01 13:37:00;;;;;;;3.12;1.40;;;;;;;22.78;38.57;100470.31;5558487;32;34296;-54
2022/09/01 13:40:14;;;;;;;2.55;1.00;;;;;;;22.87;38.67;100470.84;5569166;32;34483;-54
2022/09/01 13:43:19;;;;;;;4.15;1.20;;;;;;;22.93;39.63;100479.59;5569955;32;33673;-54
2022/09/01 13:46:22;;;;;;;5.62;1.40;;;;;;;22.92;37.80;100488.94;5569544;32;33897;-54
2022/09/01 13:49:24;;;;;;;9.90;1.87;;;;;;;22.99;40.20;100480.87;5569986;32;33643;-55
2022/09/01 13:52:52;;;;;;;3.65;1.20;;;;;;;23.03;41.69;100478.22;5569259;32;33744;-55
2022/09/01 13:55:56;;;;;;;3.28;1.20;;;;;;;22.90;38.08;100470.13;5568419;32;33916;-54
2022/09/01 13:59:03;;;;;;;5.30;1.20;;;;;;;22.97;36.64;100469.50;5569862;32;34423;-54
2022/09/01 14:02:06;;;;;;;3.10;1.10;;;;;;;22.95;37.17;100480.03;5556933;32;34359;-54
2022/09/01 14:05:08;;;;;;;3.17;1.23;;;;;;;22.86;36.20;100476.69;5550065;32;33815;-54
2022/09/01 14:08:12;;;;;;;3.92;1.30;;;;;;;22.92;37.95;100480.72;5550348;32;34405;-54
2022/09/01 14:11:16;;;;;;;6.25;1.40;;;;;;;22.91;37.96;100479.12;5550074;32;34497;-54
2022/09/01 14:14:18;;;;;;;4.12;1.62;;;;;;;22.93;38.27;100482.31;5561955;32;33775;-54
2022/09/01 14:17:21;;;;;;;7.47;1.35;;;;;;;22.94;40.05;100481.94;5569619;32;34543;-54
2022/09/01 14:20:26;;;;;;;5.78;1.15;;;;;;;23.03;39.99;100486.41;5565363;32;34256;-54
2022/09/01 14:23:28;;;;;;;6.32;1.62;;;;;;;23.06;39.49;100478.28;5557154;32;33309;-54
2022/09/01 14:26:30;;;;;;;5.22;1.00;;;;;;;23.00;39.75;100485.19;5550173;32;33723;-54
2022/09/01 14:29:33;;;;;;;3.97;1.00;;;;;;;23.05;36.60;100475.94;5550226;32;34322;-54
2022/09/01 14:32:35;;;;;;;3.05;1.20;;;;;;;23.04;37.97;100475.09;5550788;32;33697;-54
2022/09/01 14:35:40;;;;;;;2.45;1.08;;;;;;;22.97;38.85;100475.75;5559668;32;34516;-54
2022/09/01 14:38:42;;;;;;;2.80;1.10;;;;;;;22.94;37.08;100471.03;5549063;32;33688;-54
2022/09/01 14:41:44;;;;;;;3.87;1.37;;;;;;;22.96;38.13;100479.66;5553748;32;33864;-54
2022/09/01 14:44:47;;;;;;;5.35;0.93;;;;;;;23.01;38.58;100484.03;5562502;31;33720;-55
2022/09/01 14:47:52;;;;;;;3.17;1.20;;;;;;;22.97;38.06;100478.50;5550124;31;33533;-54
2022/09/01 14:50:55;;;;;;;4.47;1.33;;;;;;;22.97;38.84;100483.19;5563962;31;34264;-54
2022/09/01 14:53:57;;;;;;;1.92;1.10;;;;;;;22.93;38.78;100490.53;5569593;32;34301;-54
2022/09/01 14:57:00;;;;;;;6.10;1.33;;;;;;;22.93;37.57;100490.53;5569237;32;34225;-54
2022/09/01 15:00:25;;;;;;;2.90;1.00;;;;;;;22.97;39.87;100494.13;5568431;32;33989;-54
